createdAt,value
2022-09-14T00:01:44.993Z,4.62
2022-09-14T00:04:14.994Z,4.10
2022-09-14T00:06:43.784Z,3.85
2022-09-14T00:09:16.091Z,3.37
2022-09-14T00:11:44.277Z,2.65
2022-09-14T00:14:12.854Z,5.10
2022-09-14T00:16:42.143Z,3.87
2022-09-14T00:19:17.909Z,4.50
2022-09-14T00:21:46.190Z,3.37
2022-09-14T00:24:14.478Z,2.92
2022-09-14T00:26:42.667Z,6.47
2022-09-14T00:29:11.371Z,2.47
2022-09-14T00:31:40.623Z,4.22
2022-09-14T00:34:10.340Z,2.80
2022-09-14T00:36:43.052Z,4.42
2022-09-14T00:39:11.786Z,5.92
2022-09-14T00:41:41.376Z,4.60
2022-09-14T00:44:14.055Z,4.72
2022-09-14T00:46:46.508Z,3.75
2022-09-14T00:49:22.818Z,7.87
2022-09-14T00:51:52.562Z,3.92
2022-09-14T00:54:21.084Z,2.62
2022-09-14T00:56:49.968Z,2.37
2022-09-14T00:59:19.647Z,3.90
2022-09-14T01:01:48.357Z,4.95
2022-09-14T01:04:17.157Z,5.47
2022-09-14T01:06:52.965Z,3.42
2022-09-14T01:09:41.177Z,3.25
2022-09-14T01:12:13.933Z,3.17
2022-09-14T01:17:11.382Z,3.52
2022-09-14T01:19:57.585Z,4.22
2022-09-14T01:22:27.347Z,3.42
2022-09-14T01:25:00.149Z,2.47
2022-09-14T01:30:00.347Z,4.72
2022-09-14T01:32:31.738Z,4.17
2022-09-14T01:35:04.149Z,6.05
2022-09-14T01:37:33.947Z,2.75
2022-09-14T01:40:03.807Z,3.42
2022-09-14T01:42:33.038Z,5.28
2022-09-14T01:45:02.798Z,4.75
2022-09-14T01:47:32.572Z,4.12
2022-09-14T01:50:02.324Z,3.40
2022-09-14T01:52:32.066Z,6.05
2022-09-14T01:55:04.770Z,4.05
2022-09-14T01:57:34.481Z,4.28
2022-09-14T02:00:04.323Z,3.37
2022-09-14T02:02:34.637Z,5.92
2022-09-14T02:05:04.696Z,5.60
2022-09-14T02:07:34.462Z,2.62
2022-09-14T02:10:03.708Z,4.70
2022-09-14T02:12:34.728Z,3.17
2022-09-14T02:15:02.929Z,5.75
2022-09-14T02:17:31.294Z,3.33
2022-09-14T02:20:04.118Z,8.75
2022-09-14T02:22:33.680Z,4.28
2022-09-14T02:25:02.455Z,4.45
2022-09-14T02:27:30.664Z,7.15
2022-09-14T02:29:58.946Z,7.00
2022-09-14T02:32:40.811Z,4.47
2022-09-14T02:35:13.463Z,5.87
2022-09-14T02:37:58.451Z,4.90
2022-09-14T02:40:31.279Z,6.05
2022-09-14T02:45:36.148Z,5.55
2022-09-14T02:48:27.962Z,7.15
2022-09-14T02:51:15.879Z,5.37
2022-09-14T02:53:48.749Z,4.25
2022-09-14T02:56:17.462Z,4.87
2022-09-14T02:58:46.257Z,4.95
2022-09-14T03:01:16.152Z,5.62
2022-09-14T03:03:44.395Z,7.87
2022-09-14T03:06:12.686Z,4.75
2022-09-14T03:08:41.357Z,4.25
2022-09-14T03:11:09.714Z,5.55
2022-09-14T03:13:38.405Z,4.05
2022-09-14T03:16:07.499Z,3.95
2022-09-14T03:18:36.542Z,5.97
2022-09-14T03:21:05.824Z,7.37
2022-09-14T03:23:37.913Z,3.85
2022-09-14T03:26:10.047Z,6.30
2022-09-14T03:28:38.332Z,4.50
2022-09-14T03:31:07.867Z,6.05
2022-09-14T03:33:37.289Z,6.30
2022-09-14T03:36:13.141Z,5.87
2022-09-14T03:39:01.689Z,4.28
2022-09-14T03:41:30.568Z,7.28
2022-09-14T03:43:58.816Z,11.60
2022-09-14T03:46:27.285Z,5.47
2022-09-14T03:48:56.047Z,3.67
2022-09-14T03:51:24.628Z,5.10
2022-09-14T03:53:53.095Z,4.78
2022-09-14T03:56:22.140Z,4.35
2022-09-14T03:58:51.142Z,6.35
2022-09-14T04:01:20.863Z,7.40
2022-09-14T04:03:49.147Z,5.45
2022-09-14T04:06:18.090Z,5.87
2022-09-14T04:08:47.100Z,6.62
2022-09-14T04:11:16.788Z,7.50
2022-09-14T04:13:45.983Z,4.92
2022-09-14T04:16:14.448Z,6.33
2022-09-14T04:18:42.696Z,7.30
2022-09-14T04:21:15.015Z,4.33
2022-09-14T04:24:10.203Z,5.10
2022-09-14T04:26:17.769Z,6.78
2022-09-14T04:31:13.828Z,5.75
2022-09-14T04:33:43.040Z,5.30
2022-09-14T04:36:12.661Z,5.97
2022-09-14T04:38:41.661Z,6.83
2022-09-14T04:41:11.614Z,5.60
2022-09-14T04:43:42.420Z,7.30
2022-09-14T04:46:15.135Z,6.87
2022-09-14T04:49:04.198Z,8.10
2022-09-14T04:51:33.720Z,8.33
2022-09-14T04:54:03.614Z,10.93
2022-09-14T04:56:33.387Z,9.68
2022-09-14T04:59:04.168Z,9.40
2022-09-14T05:01:34.287Z,8.50
2022-09-14T05:04:02.720Z,9.23
2022-09-14T05:06:32.491Z,9.10
2022-09-14T05:09:01.455Z,6.90
2022-09-14T05:11:31.227Z,12.07
2022-09-14T05:14:00.303Z,14.00
2022-09-14T05:16:49.356Z,7.67
2022-09-14T05:19:18.422Z,7.28
2022-09-14T05:21:47.086Z,8.68
2022-09-14T05:24:16.836Z,7.95
2022-09-14T05:26:48.095Z,8.40
2022-09-14T05:29:17.416Z,8.35
2022-09-14T05:31:46.263Z,8.00
2022-09-14T05:34:14.562Z,9.53
2022-09-14T05:36:42.977Z,9.75
2022-09-14T05:39:11.308Z,10.38
2022-09-14T05:41:39.586Z,9.05
2022-09-14T05:44:07.814Z,8.45
2022-09-14T05:46:36.111Z,7.60
2022-09-14T05:49:04.318Z,9.53
2022-09-14T05:51:32.565Z,6.33
2022-09-14T05:54:00.961Z,7.33
2022-09-14T05:56:31.634Z,11.88
2022-09-14T05:59:00.173Z,9.90
2022-09-14T06:01:29.932Z,8.55
2022-09-14T06:04:00.291Z,9.80
2022-09-14T06:06:28.573Z,10.10
2022-09-14T06:08:57.056Z,10.10
2022-09-14T06:11:33.032Z,7.00
2022-09-14T06:14:01.242Z,11.63
2022-09-14T06:16:29.919Z,7.72
2022-09-14T06:18:59.105Z,7.50
2022-09-14T06:21:31.668Z,7.28
2022-09-14T06:24:00.148Z,9.93
2022-09-14T06:26:28.321Z,8.20
2022-09-14T06:28:56.547Z,10.28
2022-09-14T06:31:25.263Z,6.35
2022-09-14T06:33:53.682Z,8.38
2022-09-14T06:36:23.321Z,12.85
2022-09-14T06:38:52.076Z,4.78
2022-09-14T06:41:22.045Z,7.45
2022-09-14T06:43:52.021Z,10.30
2022-09-14T06:46:21.824Z,7.15
2022-09-14T06:49:00.771Z,6.87
2022-09-14T06:51:30.547Z,5.60
2022-09-14T06:54:02.538Z,8.90
2022-09-14T06:56:34.963Z,7.07
2022-09-14T06:59:07.111Z,4.30
2022-09-14T07:01:35.914Z,4.60
2022-09-14T07:04:04.097Z,7.55
2022-09-14T07:06:33.471Z,5.40
2022-09-14T07:09:03.258Z,7.47
2022-09-14T07:11:32.230Z,4.97
2022-09-14T07:14:01.752Z,5.30
2022-09-14T07:16:31.055Z,5.05
2022-09-14T07:19:02.234Z,4.95
2022-09-14T07:21:31.353Z,5.85
2022-09-14T07:23:59.652Z,9.03
2022-09-14T07:26:29.426Z,9.33
2022-09-14T07:28:59.108Z,6.05
2022-09-14T07:31:34.258Z,6.17
2022-09-14T07:34:03.512Z,4.37
2022-09-14T07:36:34.763Z,9.93
2022-09-14T07:39:03.173Z,7.55
2022-09-14T07:41:32.464Z,6.97
2022-09-14T07:44:24.450Z,5.58
2022-09-14T07:47:01.720Z,6.72
2022-09-14T07:49:52.277Z,7.62
2022-09-14T07:52:20.654Z,5.67
2022-09-14T07:54:48.830Z,6.40
2022-09-14T07:57:21.612Z,6.87
2022-09-14T07:59:56.092Z,5.05
2022-09-14T08:02:24.738Z,5.72
2022-09-14T08:04:53.761Z,6.35
2022-09-14T08:07:24.811Z,5.75
2022-09-14T08:09:58.900Z,7.72
2022-09-14T08:12:28.797Z,4.92
2022-09-14T08:14:58.405Z,4.47
2022-09-14T08:17:26.715Z,7.03
2022-09-14T08:19:55.773Z,4.65
2022-09-14T08:22:25.623Z,5.35
2022-09-14T08:25:05.932Z,5.75
2022-09-14T08:27:36.688Z,4.95
2022-09-14T08:30:05.134Z,6.37
2022-09-14T08:32:35.050Z,9.58
2022-09-14T08:35:03.268Z,3.35
2022-09-14T08:37:31.570Z,5.53
2022-09-14T08:40:01.532Z,5.10
2022-09-14T08:42:30.704Z,4.12
2022-09-14T08:45:08.895Z,5.25
2022-09-14T08:47:36.113Z,3.87
2022-09-14T08:50:08.763Z,3.52
2022-09-14T08:52:42.442Z,4.78
2022-09-14T08:55:37.709Z,5.62
2022-09-14T08:58:12.945Z,5.30
2022-09-14T09:00:59.425Z,5.22
2022-09-14T09:03:29.243Z,3.58
2022-09-14T09:06:15.956Z,4.70
2022-09-14T09:09:03.433Z,5.20
2022-09-14T09:11:33.183Z,5.97
2022-09-14T09:14:02.949Z,6.05
2022-09-14T09:16:31.372Z,5.08
2022-09-14T09:19:03.630Z,5.00
2022-09-14T09:21:36.144Z,5.33
2022-09-14T09:24:20.704Z,6.00
2022-09-14T09:26:48.924Z,6.55
2022-09-14T09:29:39.470Z,4.08
2022-09-14T09:32:09.129Z,4.60
2022-09-14T09:37:24.685Z,6.05
2022-09-14T09:39:53.057Z,4.83
2022-09-14T09:42:23.090Z,3.22
2022-09-14T09:45:08.216Z,4.72
2022-09-14T09:47:50.322Z,4.00
2022-09-14T09:50:17.909Z,3.30
2022-09-14T09:52:56.868Z,3.70
2022-09-14T09:55:27.645Z,4.35
2022-09-14T09:58:04.080Z,3.52
2022-09-14T10:00:30.770Z,4.17
2022-09-14T10:03:06.866Z,8.68
2022-09-14T10:05:35.696Z,3.83
2022-09-14T10:08:20.277Z,3.45
2022-09-14T10:10:48.767Z,3.40
2022-09-14T10:13:21.020Z,5.30
2022-09-14T10:15:52.311Z,3.45
2022-09-14T10:18:27.095Z,2.52
2022-09-14T10:20:59.069Z,6.87
2022-09-14T10:23:30.326Z,4.03
2022-09-14T10:26:17.668Z,3.62
2022-09-14T10:28:54.483Z,3.55
2022-09-14T10:31:26.563Z,6.40
2022-09-14T10:34:06.198Z,3.70
2022-09-14T10:36:47.779Z,4.28
2022-09-14T10:39:26.172Z,5.87
2022-09-14T10:42:15.936Z,5.78
2022-09-14T10:44:58.131Z,5.83
2022-09-14T10:47:50.040Z,5.10
2022-09-14T10:50:26.084Z,3.90
2022-09-14T10:53:02.655Z,5.30
2022-09-14T10:55:43.031Z,4.58
2022-09-14T10:58:24.271Z,4.03
2022-09-14T11:00:51.467Z,3.90
2022-09-14T11:03:27.729Z,6.15
2022-09-14T11:06:15.991Z,5.40
2022-09-14T11:08:46.436Z,4.50
2022-09-14T11:11:36.210Z,4.95
2022-09-14T11:14:13.015Z,5.28
2022-09-14T11:17:07.814Z,5.00
2022-09-14T11:19:53.990Z,5.42
2022-09-14T11:22:23.806Z,3.60
2022-09-14T11:24:56.013Z,5.70
2022-09-14T11:27:30.452Z,4.92
2022-09-14T11:30:00.371Z,5.33
2022-09-14T11:32:58.938Z,4.53
2022-09-14T11:35:50.716Z,3.90
2022-09-14T11:38:20.445Z,3.92
2022-09-14T11:40:59.001Z,4.47
2022-09-14T11:43:45.357Z,3.55
2022-09-14T11:46:15.141Z,4.75
2022-09-14T11:48:57.257Z,4.60
2022-09-14T11:51:27.191Z,5.33
2022-09-14T11:53:55.489Z,4.83
2022-09-14T11:56:28.494Z,5.12
2022-09-14T11:58:58.248Z,3.45
2022-09-14T12:01:28.076Z,7.10
2022-09-14T12:04:00.552Z,3.22
2022-09-14T12:06:32.738Z,4.30
2022-09-14T12:09:24.941Z,3.20
2022-09-14T12:11:58.202Z,4.35
2022-09-14T12:14:28.612Z,3.65
2022-09-14T12:17:37.829Z,3.75
2022-09-14T12:19:46.228Z,2.67
2022-09-14T12:22:21.789Z,3.10
2022-09-14T12:24:51.653Z,4.35
2022-09-14T12:27:23.609Z,3.33
2022-09-14T12:29:51.962Z,2.40
2022-09-14T12:32:28.146Z,3.75
2022-09-14T12:35:06.682Z,2.50
2022-09-14T12:37:35.101Z,2.52
2022-09-14T12:40:14.316Z,2.33
2022-09-14T12:42:42.706Z,2.40
2022-09-14T12:45:29.161Z,2.90
2022-09-14T12:47:57.440Z,2.83
2022-09-14T12:50:27.271Z,2.67
2022-09-14T12:53:03.192Z,3.52
2022-09-14T12:55:32.950Z,4.50
2022-09-14T12:58:08.397Z,3.77
2022-09-14T13:00:39.800Z,4.87
2022-09-14T13:03:13.790Z,4.83
2022-09-14T13:05:44.004Z,3.70
2022-09-14T13:08:13.644Z,4.83
2022-09-14T13:10:43.527Z,2.90
2022-09-14T13:13:19.421Z,3.52
2022-09-14T13:15:51.852Z,3.20
2022-09-14T13:18:21.677Z,2.52
2022-09-14T13:20:51.047Z,4.47
2022-09-14T13:23:42.753Z,2.60
2022-09-14T13:26:18.322Z,3.45
2022-09-14T13:29:07.353Z,4.00
2022-09-14T13:31:51.326Z,3.80
2022-09-14T13:34:24.356Z,4.95
2022-09-14T13:36:53.461Z,4.87
2022-09-14T13:39:26.391Z,5.05
2022-09-14T13:41:55.355Z,4.50
2022-09-14T13:44:25.616Z,4.25
2022-09-14T13:46:55.476Z,4.53
2022-09-14T13:49:23.984Z,3.58
2022-09-14T13:51:52.261Z,4.17
2022-09-14T13:54:27.624Z,4.17
2022-09-14T13:57:15.345Z,5.92
2022-09-14T14:00:01.762Z,5.25
2022-09-14T14:02:31.799Z,5.33
2022-09-14T14:05:00.348Z,4.00
2022-09-14T14:07:35.395Z,4.67
2022-09-14T14:10:04.381Z,4.85
2022-09-14T14:12:34.807Z,3.50
2022-09-14T14:15:16.030Z,2.90
2022-09-14T14:17:46.754Z,5.30
2022-09-14T14:20:28.529Z,3.25
2022-09-14T14:23:29.640Z,5.65
2022-09-14T14:26:07.875Z,4.75
2022-09-14T14:28:39.395Z,9.00
2022-09-14T14:31:09.883Z,6.92
2022-09-14T14:33:41.978Z,6.20
2022-09-14T14:36:10.585Z,6.78
2022-09-14T14:38:40.603Z,7.42
2022-09-14T14:41:10.936Z,6.30
2022-09-14T14:43:41.375Z,5.58
2022-09-14T14:46:09.398Z,6.50
2022-09-14T14:48:37.829Z,6.75
2022-09-14T14:51:06.224Z,4.30
2022-09-14T14:53:34.538Z,8.58
2022-09-14T14:56:02.913Z,5.95
2022-09-14T14:58:36.173Z,6.72
2022-09-14T15:01:01.510Z,6.05
2022-09-14T15:03:29.836Z,4.10
2022-09-14T15:05:58.138Z,7.03
2022-09-14T15:08:26.334Z,6.35
2022-09-14T15:10:56.137Z,7.53
2022-09-14T15:13:25.044Z,8.30
2022-09-14T15:27:14.704Z,5.08
2022-09-14T15:29:45.531Z,6.78
2022-09-14T15:32:13.857Z,4.20
2022-09-14T15:34:44.363Z,4.95
2022-09-14T15:37:12.704Z,7.40
2022-09-14T15:39:55.167Z,6.05
2022-09-14T15:42:38.852Z,4.67
2022-09-14T15:45:05.005Z,5.90
2022-09-14T15:47:36.414Z,5.35
2022-09-14T15:50:08.689Z,4.58
2022-09-14T15:52:37.787Z,5.75
2022-09-14T15:55:06.785Z,7.10
2022-09-14T15:57:35.151Z,6.45
2022-09-14T16:00:09.900Z,5.20
2022-09-14T16:02:39.502Z,5.60
2022-09-14T16:05:07.888Z,4.00
2022-09-14T16:07:37.420Z,5.83
2022-09-14T16:10:05.934Z,3.65
2022-09-14T16:12:34.147Z,4.92
2022-09-14T16:15:02.358Z,7.75
2022-09-14T16:17:30.570Z,5.25
2022-09-14T16:19:59.309Z,3.80
2022-09-14T16:22:59.045Z,3.52
2022-09-14T16:25:27.399Z,3.62
2022-09-14T16:27:55.628Z,4.17
2022-09-14T16:30:23.846Z,3.87
2022-09-14T16:32:52.929Z,5.80
2022-09-14T16:35:21.209Z,3.85
2022-09-14T16:37:49.411Z,8.08
2022-09-14T16:40:17.777Z,3.85
2022-09-14T16:42:47.646Z,3.37
2022-09-14T16:45:15.825Z,3.05
2022-09-14T16:47:44.526Z,3.45
2022-09-14T16:50:13.320Z,4.25
2022-09-14T16:52:41.529Z,2.15
2022-09-14T16:55:09.826Z,2.92
2022-09-14T16:57:38.081Z,2.77
2022-09-14T17:00:06.948Z,3.25
2022-09-14T17:02:35.186Z,1.70
2022-09-14T17:05:03.401Z,2.00
2022-09-14T17:07:31.621Z,2.30
2022-09-14T17:09:59.843Z,3.72
2022-09-14T17:12:28.087Z,1.80
2022-09-14T17:14:56.287Z,1.65
2022-09-14T17:17:26.656Z,2.87
2022-09-14T17:19:54.891Z,2.62
2022-09-14T17:22:23.159Z,2.85
2022-09-14T17:24:51.373Z,5.17
2022-09-14T17:27:20.042Z,2.20
2022-09-14T17:29:48.957Z,2.90
2022-09-14T17:32:17.757Z,3.92
2022-09-14T17:34:47.118Z,3.37
2022-09-14T17:37:15.713Z,3.67
2022-09-14T17:39:44.775Z,4.67
2022-09-14T17:42:13.579Z,4.85
2022-09-14T17:44:42.243Z,4.30
2022-09-14T17:47:10.515Z,6.87
2022-09-14T17:49:38.681Z,7.10
2022-09-14T17:52:06.905Z,5.95
2022-09-14T17:54:35.159Z,7.58
2022-09-14T17:57:03.366Z,8.05
2022-09-14T17:59:31.604Z,6.87
2022-09-14T18:01:59.847Z,7.72
2022-09-14T18:04:29.826Z,8.43
2022-09-14T18:06:58.062Z,6.97
2022-09-14T18:09:26.277Z,8.20
2022-09-14T18:11:56.061Z,7.40
2022-09-14T18:14:24.333Z,7.65
2022-09-14T18:16:52.536Z,12.60
2022-09-14T18:19:20.838Z,15.63
2022-09-14T18:21:52.356Z,12.88
2022-09-14T18:24:18.986Z,9.10
2022-09-14T18:26:48.478Z,8.15
2022-09-14T18:29:17.593Z,10.03
2022-09-14T18:31:45.853Z,8.38
2022-09-14T18:34:14.116Z,10.65
2022-09-14T18:36:42.502Z,10.90
2022-09-14T18:39:12.285Z,11.80
2022-09-14T18:41:40.502Z,11.68
2022-09-14T18:44:08.809Z,14.23
2022-09-14T18:46:37.990Z,17.23
2022-09-14T18:49:06.251Z,16.93
2022-09-14T18:51:34.543Z,19.20
2022-09-14T18:54:04.358Z,12.95
2022-09-14T18:56:35.989Z,16.97
2022-09-14T18:59:05.228Z,18.67
2022-09-14T19:01:34.349Z,22.20
2022-09-14T19:04:03.621Z,18.75
2022-09-14T19:06:33.205Z,21.80
2022-09-14T19:09:01.688Z,23.15
2022-09-14T19:11:36.889Z,21.52
2022-09-14T19:14:07.987Z,24.32
2022-09-14T19:16:37.889Z,24.37
2022-09-14T19:19:06.746Z,24.43
2022-09-14T19:21:35.048Z,22.48
2022-09-14T19:24:04.998Z,26.75
2022-09-14T19:26:42.463Z,22.85
2022-09-14T19:29:07.693Z,21.87
2022-09-14T19:31:36.018Z,26.62
2022-09-14T19:34:04.955Z,24.60
2022-09-14T19:36:36.561Z,22.10
2022-09-14T19:39:05.399Z,22.60
2022-09-14T19:41:34.503Z,20.88
2022-09-14T19:44:03.484Z,21.07
2022-09-14T19:46:32.318Z,21.05
2022-09-14T19:49:00.576Z,19.55
2022-09-14T19:51:30.259Z,24.07
2022-09-14T19:54:00.510Z,18.92
2022-09-14T19:56:30.304Z,21.75
2022-09-14T19:58:59.774Z,24.27
2022-09-14T20:01:28.882Z,21.82
2022-09-14T20:03:57.340Z,22.58
2022-09-14T20:06:28.477Z,19.62
2022-09-14T20:08:57.764Z,18.82
2022-09-14T20:11:27.053Z,25.82
2022-09-14T20:13:56.215Z,22.77
2022-09-14T20:16:48.300Z,21.90
2022-09-14T20:19:17.748Z,16.65
2022-09-14T20:21:47.306Z,22.32
2022-09-14T20:24:18.428Z,28.40
2022-09-14T20:26:47.593Z,25.85
2022-09-14T20:29:17.367Z,25.43
2022-09-14T20:31:45.866Z,25.85
2022-09-14T20:34:16.122Z,22.87
2022-09-14T20:36:44.723Z,29.57
2022-09-14T20:39:12.942Z,24.05
2022-09-14T20:41:41.165Z,22.22
2022-09-14T20:44:10.152Z,17.95
2022-09-14T20:46:42.715Z,16.55
2022-09-14T20:49:15.517Z,17.00
2022-09-14T20:54:12.601Z,19.73
2022-09-14T20:56:41.271Z,22.95
2022-09-14T20:59:10.994Z,23.75
2022-09-14T21:02:04.615Z,21.37
2022-09-14T21:04:29.900Z,24.32
2022-09-14T21:06:58.135Z,23.60
2022-09-14T21:09:27.008Z,19.80
2022-09-14T21:11:55.332Z,17.90
2022-09-14T21:14:23.613Z,14.15
2022-09-14T21:16:55.097Z,13.88
2022-09-14T21:19:24.920Z,14.23
2022-09-14T21:21:53.264Z,13.48
2022-09-14T21:24:21.974Z,14.58
2022-09-14T21:26:50.305Z,15.00
2022-09-14T21:29:20.750Z,12.60
2022-09-14T21:31:49.562Z,16.90
2022-09-14T21:34:17.953Z,15.32
2022-09-14T21:37:05.528Z,15.83
2022-09-14T21:39:33.894Z,13.80
2022-09-14T21:42:02.145Z,14.65
2022-09-14T21:44:31.910Z,11.60
2022-09-14T21:47:00.196Z,13.53
2022-09-14T21:49:28.502Z,12.98
2022-09-14T21:51:56.757Z,14.15
2022-09-14T21:54:25.050Z,12.47
2022-09-14T21:56:53.610Z,14.93
2022-09-14T21:59:22.702Z,14.30
2022-09-14T22:01:51.004Z,23.02
2022-09-14T22:04:20.489Z,13.75
2022-09-14T22:06:50.536Z,14.07
2022-09-14T22:09:20.199Z,11.90
2022-09-14T22:11:49.030Z,16.02
2022-09-14T22:14:18.885Z,14.68
2022-09-14T22:16:47.748Z,14.85
2022-09-14T22:19:17.437Z,18.07
2022-09-14T22:21:45.726Z,13.43
2022-09-14T22:24:15.478Z,17.32
2022-09-14T22:26:44.295Z,20.60
2022-09-14T22:29:13.005Z,21.37
2022-09-14T22:32:02.066Z,20.10
2022-09-14T22:34:30.843Z,19.27
2022-09-14T22:36:59.233Z,20.32
2022-09-14T22:39:27.473Z,19.32
2022-09-14T22:41:55.689Z,20.68
2022-09-14T22:44:23.905Z,18.62
2022-09-14T22:46:52.149Z,20.55
2022-09-14T22:49:20.384Z,18.12
2022-09-14T22:51:48.610Z,19.75
2022-09-14T22:54:17.174Z,20.32
2022-09-14T22:56:45.579Z,23.07
2022-09-14T22:59:13.798Z,21.42
2022-09-14T23:01:42.527Z,25.45
2022-09-14T23:04:12.537Z,24.18
2022-09-14T23:06:47.359Z,22.25
2022-09-14T23:09:17.071Z,22.45
2022-09-14T23:11:46.533Z,23.22
2022-09-14T23:14:15.621Z,23.05
2022-09-14T23:19:22.113Z,19.48
2022-09-14T23:21:50.415Z,18.55
2022-09-14T23:24:18.693Z,19.92
2022-09-14T23:26:47.067Z,15.58
2022-09-14T23:29:16.693Z,20.10
2022-09-14T23:31:45.252Z,18.45
2022-09-14T23:34:13.506Z,19.05
2022-09-14T23:36:41.809Z,19.42
2022-09-14T23:39:10.019Z,19.45
2022-09-14T23:41:39.696Z,22.20
2022-09-14T23:44:08.037Z,26.57
2022-09-14T23:46:36.248Z,19.73
2022-09-14T23:49:04.484Z,21.20
2022-09-14T23:51:33.063Z,20.45
2022-09-14T23:54:01.280Z,17.77
2022-09-14T23:56:29.578Z,19.55
2022-09-14T23:58:57.795Z,19.52
